sensor_id;sensor_type;location;lat;lon;timestamp;temperature;humidity
41318;DHT22;27067;51.554;7.026;2024-01-06T00:01:24;17.10;99.90
41318;DHT22;27067;51.554;7.026;2024-01-06T00:03:50;17.10;99.90
41318;DHT22;27067;51.554;7.026;2024-01-06T00:06:16;17.10;99.90
41318;DHT22;27067;51.554;7.026;2024-01-06T00:08:41;16.10;99.90
41318;DHT22;27067;51.554;7.026;2024-01-06T00:11:07;17.10;99.90
41318;DHT22;27067;51.554;7.026;2024-01-06T00:13:33;17.10;99.90
41318;DHT22;27067;51.554;7.026;2024-01-06T00:16:00;17.10;99.90
41318;DHT22;27067;51.554;7.026;2024-01-06T00:18:25;17.10;99.90
41318;DHT22;27067;51.554;7.026;2024-01-06T00:20:51;17.10;99.90
41318;DHT22;27067;51.554;7.026;2024-01-06T00:23:17;17.00;99.90
41318;DHT22;27067;51.554;7.026;2024-01-06T00:25:43;17.10;99.90
41318;DHT22;27067;51.554;7.026;2024-01-06T00:28:09;17.00;99.90
41318;DHT22;27067;51.554;7.026;2024-01-06T00:30:35;17.00;99.90
41318;DHT22;27067;51.554;7.026;2024-01-06T00:33:01;17.00;99.90
41318;DHT22;27067;51.554;7.026;2024-01-06T00:35:26;17.00;99.90
41318;DHT22;27067;51.554;7.026;2024-01-06T00:37:52;17.00;99.90
41318;DHT22;27067;51.554;7.026;2024-01-06T00:40:18;17.00;99.90
41318;DHT22;27067;51.554;7.026;2024-01-06T00:42:45;17.00;99.90
41318;DHT22;27067;51.554;7.026;2024-01-06T00:45:10;17.00;99.90
41318;DHT22;27067;51.554;7.026;2024-01-06T00:47:36;16.90;99.90
41318;DHT22;27067;51.554;7.026;2024-01-06T00:50:02;17.00;99.90
41318;DHT22;27067;51.554;7.026;2024-01-06T00:52:28;17.00;99.90
41318;DHT22;27067;51.554;7.026;2024-01-06T00:54:53;17.00;99.90
41318;DHT22;27067;51.554;7.026;2024-01-06T00:57:19;17.00;99.90
41318;DHT22;27067;51.554;7.026;2024-01-06T00:59:49;16.90;99.90
41318;DHT22;27067;51.554;7.026;2024-01-06T01:02:16;16.90;99.90
41318;DHT22;27067;51.554;7.026;2024-01-06T01:04:41;17.00;99.90
41318;DHT22;27067;51.554;7.026;2024-01-06T01:07:07;16.90;99.90
41318;DHT22;27067;51.554;7.026;2024-01-06T01:09:33;16.90;99.90
41318;DHT22;27067;51.554;7.026;2024-01-06T01:12:00;16.90;99.90
41318;DHT22;27067;51.554;7.026;2024-01-06T01:14:25;16.90;99.90
41318;DHT22;27067;51.554;7.026;2024-01-06T01:16:51;16.90;99.90
41318;DHT22;27067;51.554;7.026;2024-01-06T01:19:17;16.90;99.90
41318;DHT22;27067;51.554;7.026;2024-01-06T01:21:42;16.90;99.90
41318;DHT22;27067;51.554;7.026;2024-01-06T01:24:08;16.90;99.90
41318;DHT22;27067;51.554;7.026;2024-01-06T01:26:34;16.90;99.90
41318;DHT22;27067;51.554;7.026;2024-01-06T01:28:59;16.90;99.90
41318;DHT22;27067;51.554;7.026;2024-01-06T01:31:25;16.90;99.90
41318;DHT22;27067;51.554;7.026;2024-01-06T01:33:51;16.80;99.90
41318;DHT22;27067;51.554;7.026;2024-01-06T01:36:17;16.90;99.90
41318;DHT22;27067;51.554;7.026;2024-01-06T01:38:43;16.80;99.90
41318;DHT22;27067;51.554;7.026;2024-01-06T01:41:09;16.80;99.90
41318;DHT22;27067;51.554;7.026;2024-01-06T01:43:35;16.90;99.90
41318;DHT22;27067;51.554;7.026;2024-01-06T01:46:01;16.90;99.90
41318;DHT22;27067;51.554;7.026;2024-01-06T01:48:27;16.90;99.90
41318;DHT22;27067;51.554;7.026;2024-01-06T01:50:56;16.80;99.90
41318;DHT22;27067;51.554;7.026;2024-01-06T01:53:22;16.90;99.90
41318;DHT22;27067;51.554;7.026;2024-01-06T01:55:50;16.90;99.90
41318;DHT22;27067;51.554;7.026;2024-01-06T01:58:16;16.90;99.90
41318;DHT22;27067;51.554;7.026;2024-01-06T02:00:42;16.90;99.90
41318;DHT22;27067;51.554;7.026;2024-01-06T02:03:09;16.90;99.90
41318;DHT22;27067;51.554;7.026;2024-01-06T02:05:36;16.90;99.90
41318;DHT22;27067;51.554;7.026;2024-01-06T02:08:02;16.90;99.90
41318;DHT22;27067;51.554;7.026;2024-01-06T02:10:27;16.90;99.90
41318;DHT22;27067;51.554;7.026;2024-01-06T02:12:54;16.90;99.90
41318;DHT22;27067;51.554;7.026;2024-01-06T02:15:20;16.90;99.90
41318;DHT22;27067;51.554;7.026;2024-01-06T02:17:46;16.80;99.90
41318;DHT22;27067;51.554;7.026;2024-01-06T02:20:13;16.90;99.90
41318;DHT22;27067;51.554;7.026;2024-01-06T02:22:39;16.80;99.90
41318;DHT22;27067;51.554;7.026;2024-01-06T02:25:07;16.90;99.90
41318;DHT22;27067;51.554;7.026;2024-01-06T02:27:38;16.80;99.90
41318;DHT22;27067;51.554;7.026;2024-01-06T02:30:05;16.50;99.90
41318;DHT22;27067;51.554;7.026;2024-01-06T02:32:31;16.90;99.90
41318;DHT22;27067;51.554;7.026;2024-01-06T02:34:57;16.90;99.90
41318;DHT22;27067;51.554;7.026;2024-01-06T02:37:22;16.90;99.90
41318;DHT22;27067;51.554;7.026;2024-01-06T02:39:48;16.90;99.90
41318;DHT22;27067;51.554;7.026;2024-01-06T02:42:14;16.90;99.90
41318;DHT22;27067;51.554;7.026;2024-01-06T02:44:40;16.80;99.90
41318;DHT22;27067;51.554;7.026;2024-01-06T02:47:05;16.80;99.90
41318;DHT22;27067;51.554;7.026;2024-01-06T02:49:31;16.80;99.90
41318;DHT22;27067;51.554;7.026;2024-01-06T02:51:57;16.80;99.90
41318;DHT22;27067;51.554;7.026;2024-01-06T02:54:23;16.80;99.90
41318;DHT22;27067;51.554;7.026;2024-01-06T02:56:48;16.80;99.90
41318;DHT22;27067;51.554;7.026;2024-01-06T02:59:14;16.80;99.90
41318;DHT22;27067;51.554;7.026;2024-01-06T03:01:40;16.80;99.90
41318;DHT22;27067;51.554;7.026;2024-01-06T03:04:05;16.80;99.90
41318;DHT22;27067;51.554;7.026;2024-01-06T03:06:31;16.80;99.90
41318;DHT22;27067;51.554;7.026;2024-01-06T03:08:56;16.80;99.90
41318;DHT22;27067;51.554;7.026;2024-01-06T03:11:22;16.80;99.90
41318;DHT22;27067;51.554;7.026;2024-01-06T03:13:48;16.80;99.90
41318;DHT22;27067;51.554;7.026;2024-01-06T03:16:14;16.80;99.90
41318;DHT22;27067;51.554;7.026;2024-01-06T03:18:39;16.80;99.90
41318;DHT22;27067;51.554;7.026;2024-01-06T03:21:05;16.80;99.90
41318;DHT22;27067;51.554;7.026;2024-01-06T03:23:31;16.80;99.90
41318;DHT22;27067;51.554;7.026;2024-01-06T03:25:56;16.80;99.90
41318;DHT22;27067;51.554;7.026;2024-01-06T03:28:22;16.80;99.90
41318;DHT22;27067;51.554;7.026;2024-01-06T03:30:48;16.80;99.90
41318;DHT22;27067;51.554;7.026;2024-01-06T03:33:14;16.80;99.90
41318;DHT22;27067;51.554;7.026;2024-01-06T03:35:39;16.80;99.90
41318;DHT22;27067;51.554;7.026;2024-01-06T03:38:05;16.80;99.90
41318;DHT22;27067;51.554;7.026;2024-01-06T03:40:31;16.80;99.90
41318;DHT22;27067;51.554;7.026;2024-01-06T03:42:56;16.80;99.90
41318;DHT22;27067;51.554;7.026;2024-01-06T03:45:22;16.70;99.90
41318;DHT22;27067;51.554;7.026;2024-01-06T03:47:48;16.80;99.90
41318;DHT22;27067;51.554;7.026;2024-01-06T03:50:13;16.70;99.90
41318;DHT22;27067;51.554;7.026;2024-01-06T03:52:39;16.70;99.90
41318;DHT22;27067;51.554;7.026;2024-01-06T03:55:06;16.70;99.90
41318;DHT22;27067;51.554;7.026;2024-01-06T03:57:31;16.70;99.90
41318;DHT22;27067;51.554;7.026;2024-01-06T03:59:57;16.70;99.90
41318;DHT22;27067;51.554;7.026;2024-01-06T04:02:23;16.70;99.90
41318;DHT22;27067;51.554;7.026;2024-01-06T04:04:49;16.70;99.90
41318;DHT22;27067;51.554;7.026;2024-01-06T04:07:15;16.70;99.90
41318;DHT22;27067;51.554;7.026;2024-01-06T04:09:43;16.70;99.90
41318;DHT22;27067;51.554;7.026;2024-01-06T04:12:09;16.70;99.90
41318;DHT22;27067;51.554;7.026;2024-01-06T04:14:35;16.70;99.90
41318;DHT22;27067;51.554;7.026;2024-01-06T04:17:00;16.60;99.90
41318;DHT22;27067;51.554;7.026;2024-01-06T04:19:26;16.70;99.90
41318;DHT22;27067;51.554;7.026;2024-01-06T04:21:51;16.70;99.90
41318;DHT22;27067;51.554;7.026;2024-01-06T04:24:17;16.70;99.90
41318;DHT22;27067;51.554;7.026;2024-01-06T04:26:43;16.70;99.90
41318;DHT22;27067;51.554;7.026;2024-01-06T04:29:10;16.70;99.90
41318;DHT22;27067;51.554;7.026;2024-01-06T04:31:37;16.70;99.90
41318;DHT22;27067;51.554;7.026;2024-01-06T04:34:02;16.70;99.90
41318;DHT22;27067;51.554;7.026;2024-01-06T04:36:28;16.70;99.90
41318;DHT22;27067;51.554;7.026;2024-01-06T04:38:54;16.70;99.90
41318;DHT22;27067;51.554;7.026;2024-01-06T04:41:20;16.70;99.90
41318;DHT22;27067;51.554;7.026;2024-01-06T04:43:46;16.70;99.90
41318;DHT22;27067;51.554;7.026;2024-01-06T04:46:11;16.70;99.90
41318;DHT22;27067;51.554;7.026;2024-01-06T04:48:40;16.70;99.90
41318;DHT22;27067;51.554;7.026;2024-01-06T04:51:06;16.70;99.90
41318;DHT22;27067;51.554;7.026;2024-01-06T04:53:35;17.10;99.90
41318;DHT22;27067;51.554;7.026;2024-01-06T04:56:01;16.70;99.90
41318;DHT22;27067;51.554;7.026;2024-01-06T04:58:26;16.60;99.90
41318;DHT22;27067;51.554;7.026;2024-01-06T05:00:52;16.70;99.90
41318;DHT22;27067;51.554;7.026;2024-01-06T05:03:18;16.60;99.90
41318;DHT22;27067;51.554;7.026;2024-01-06T05:05:43;16.60;99.90
41318;DHT22;27067;51.554;7.026;2024-01-06T05:08:09;16.60;99.90
41318;DHT22;27067;51.554;7.026;2024-01-06T05:10:35;16.70;99.90
41318;DHT22;27067;51.554;7.026;2024-01-06T05:13:01;16.60;99.90
41318;DHT22;27067;51.554;7.026;2024-01-06T05:15:26;16.60;99.90
41318;DHT22;27067;51.554;7.026;2024-01-06T05:17:52;16.60;99.90
41318;DHT22;27067;51.554;7.026;2024-01-06T05:20:17;16.60;99.90
41318;DHT22;27067;51.554;7.026;2024-01-06T05:22:43;16.60;99.90
41318;DHT22;27067;51.554;7.026;2024-01-06T05:25:33;16.60;99.90
41318;DHT22;27067;51.554;7.026;2024-01-06T05:28:01;16.60;99.90
41318;DHT22;27067;51.554;7.026;2024-01-06T05:30:27;16.60;99.90
41318;DHT22;27067;51.554;7.026;2024-01-06T05:32:52;16.60;99.90
41318;DHT22;27067;51.554;7.026;2024-01-06T05:35:18;16.60;99.90
41318;DHT22;27067;51.554;7.026;2024-01-06T05:37:43;16.60;99.90
41318;DHT22;27067;51.554;7.026;2024-01-06T05:40:09;16.60;99.90
41318;DHT22;27067;51.554;7.026;2024-01-06T05:42:37;16.60;99.90
41318;DHT22;27067;51.554;7.026;2024-01-06T05:45:03;16.50;99.90
41318;DHT22;27067;51.554;7.026;2024-01-06T05:47:28;16.60;99.90
41318;DHT22;27067;51.554;7.026;2024-01-06T05:49:55;16.50;99.90
41318;DHT22;27067;51.554;7.026;2024-01-06T05:52:21;16.60;99.90
41318;DHT22;27067;51.554;7.026;2024-01-06T05:54:47;16.70;99.90
41318;DHT22;27067;51.554;7.026;2024-01-06T05:57:13;16.70;99.90
41318;DHT22;27067;51.554;7.026;2024-01-06T05:59:39;16.80;99.90
41318;DHT22;27067;51.554;7.026;2024-01-06T06:02:04;16.90;99.90
41318;DHT22;27067;51.554;7.026;2024-01-06T06:04:30;16.90;99.90
41318;DHT22;27067;51.554;7.026;2024-01-06T06:06:56;17.00;99.90
41318;DHT22;27067;51.554;7.026;2024-01-06T06:09:21;17.00;99.90
41318;DHT22;27067;51.554;7.026;2024-01-06T06:11:47;17.00;99.90
41318;DHT22;27067;51.554;7.026;2024-01-06T06:14:14;16.90;99.90
41318;DHT22;27067;51.554;7.026;2024-01-06T06:16:39;17.00;99.90
41318;DHT22;27067;51.554;7.026;2024-01-06T06:19:05;16.90;99.90
41318;DHT22;27067;51.554;7.026;2024-01-06T06:21:31;17.00;99.90
41318;DHT22;27067;51.554;7.026;2024-01-06T06:23:57;16.90;99.90
41318;DHT22;27067;51.554;7.026;2024-01-06T06:26:22;16.90;99.90
41318;DHT22;27067;51.554;7.026;2024-01-06T06:28:48;16.90;99.90
41318;DHT22;27067;51.554;7.026;2024-01-06T06:31:14;16.90;99.90
41318;DHT22;27067;51.554;7.026;2024-01-06T06:33:39;16.80;99.90
41318;DHT22;27067;51.554;7.026;2024-01-06T06:36:05;16.80;99.90
41318;DHT22;27067;51.554;7.026;2024-01-06T06:38:31;16.80;99.90
41318;DHT22;27067;51.554;7.026;2024-01-06T06:40:57;16.80;99.90
41318;DHT22;27067;51.554;7.026;2024-01-06T06:43:22;16.70;99.90
41318;DHT22;27067;51.554;7.026;2024-01-06T06:45:48;16.70;99.90
41318;DHT22;27067;51.554;7.026;2024-01-06T06:48:14;16.70;99.90
41318;DHT22;27067;51.554;7.026;2024-01-06T06:50:39;16.70;99.90
41318;DHT22;27067;51.554;7.026;2024-01-06T06:53:07;16.70;99.90
41318;DHT22;27067;51.554;7.026;2024-01-06T06:55:32;16.80;99.90
41318;DHT22;27067;51.554;7.026;2024-01-06T06:57:58;16.70;99.90
41318;DHT22;27067;51.554;7.026;2024-01-06T07:00:24;16.80;99.90
41318;DHT22;27067;51.554;7.026;2024-01-06T07:02:49;16.80;99.90
41318;DHT22;27067;51.554;7.026;2024-01-06T07:05:15;16.80;99.90
41318;DHT22;27067;51.554;7.026;2024-01-06T07:07:41;16.80;99.90
41318;DHT22;27067;51.554;7.026;2024-01-06T07:10:10;16.80;99.90
41318;DHT22;27067;51.554;7.026;2024-01-06T07:12:35;16.80;99.90
41318;DHT22;27067;51.554;7.026;2024-01-06T07:15:01;16.80;99.90
41318;DHT22;27067;51.554;7.026;2024-01-06T07:17:26;16.70;99.90
41318;DHT22;27067;51.554;7.026;2024-01-06T07:19:52;16.70;99.90
41318;DHT22;27067;51.554;7.026;2024-01-06T07:22:19;16.70;99.90
41318;DHT22;27067;51.554;7.026;2024-01-06T07:24:44;16.70;99.90
41318;DHT22;27067;51.554;7.026;2024-01-06T07:27:10;16.70;99.90
41318;DHT22;27067;51.554;7.026;2024-01-06T07:29:36;16.70;99.90
41318;DHT22;27067;51.554;7.026;2024-01-06T07:32:03;16.60;99.90
41318;DHT22;27067;51.554;7.026;2024-01-06T07:34:29;16.60;99.90
41318;DHT22;27067;51.554;7.026;2024-01-06T07:36:54;16.60;99.90
41318;DHT22;27067;51.554;7.026;2024-01-06T07:39:20;16.70;99.90
41318;DHT22;27067;51.554;7.026;2024-01-06T07:41:45;16.60;99.90
41318;DHT22;27067;51.554;7.026;2024-01-06T07:44:12;16.60;99.90
41318;DHT22;27067;51.554;7.026;2024-01-06T07:46:38;16.60;99.90
41318;DHT22;27067;51.554;7.026;2024-01-06T07:49:05;16.60;99.90
41318;DHT22;27067;51.554;7.026;2024-01-06T07:51:31;16.60;99.90
41318;DHT22;27067;51.554;7.026;2024-01-06T07:53:57;16.60;99.90
41318;DHT22;27067;51.554;7.026;2024-01-06T07:56:23;16.60;99.90
41318;DHT22;27067;51.554;7.026;2024-01-06T07:58:49;16.50;99.90
41318;DHT22;27067;51.554;7.026;2024-01-06T08:01:15;16.60;99.90
41318;DHT22;27067;51.554;7.026;2024-01-06T08:03:40;16.50;99.90
41318;DHT22;27067;51.554;7.026;2024-01-06T08:06:06;16.50;99.90
41318;DHT22;27067;51.554;7.026;2024-01-06T08:08:32;16.50;99.90
41318;DHT22;27067;51.554;7.026;2024-01-06T08:10:57;16.50;99.90
41318;DHT22;27067;51.554;7.026;2024-01-06T08:13:23;16.50;99.90
41318;DHT22;27067;51.554;7.026;2024-01-06T08:15:48;16.40;99.90
41318;DHT22;27067;51.554;7.026;2024-01-06T08:18:14;16.40;99.90
41318;DHT22;27067;51.554;7.026;2024-01-06T08:20:40;16.40;99.90
41318;DHT22;27067;51.554;7.026;2024-01-06T08:23:05;16.50;99.90
41318;DHT22;27067;51.554;7.026;2024-01-06T08:25:31;16.50;99.90
41318;DHT22;27067;51.554;7.026;2024-01-06T08:27:56;16.50;99.90
41318;DHT22;27067;51.554;7.026;2024-01-06T08:30:22;16.50;99.90
41318;DHT22;27067;51.554;7.026;2024-01-06T08:32:49;16.50;99.90
41318;DHT22;27067;51.554;7.026;2024-01-06T08:35:14;16.50;99.90
41318;DHT22;27067;51.554;7.026;2024-01-06T08:37:42;16.50;99.90
41318;DHT22;27067;51.554;7.026;2024-01-06T08:40:09;16.80;99.90
41318;DHT22;27067;51.554;7.026;2024-01-06T08:42:34;16.60;99.90
41318;DHT22;27067;51.554;7.026;2024-01-06T08:45:00;16.60;99.90
41318;DHT22;27067;51.554;7.026;2024-01-06T08:47:25;16.60;99.90
41318;DHT22;27067;51.554;7.026;2024-01-06T08:49:51;16.50;99.90
41318;DHT22;27067;51.554;7.026;2024-01-06T08:52:17;16.50;99.90
41318;DHT22;27067;51.554;7.026;2024-01-06T08:54:42;16.50;99.90
41318;DHT22;27067;51.554;7.026;2024-01-06T08:57:08;16.50;99.90
41318;DHT22;27067;51.554;7.026;2024-01-06T08:59:34;16.50;99.90
41318;DHT22;27067;51.554;7.026;2024-01-06T09:01:59;16.60;99.90
41318;DHT22;27067;51.554;7.026;2024-01-06T09:04:26;16.30;99.90
41318;DHT22;27067;51.554;7.026;2024-01-06T09:06:52;17.20;99.90
41318;DHT22;27067;51.554;7.026;2024-01-06T09:09:18;16.70;99.90
41318;DHT22;27067;51.554;7.026;2024-01-06T09:11:43;16.60;99.80
41318;DHT22;27067;51.554;7.026;2024-01-06T09:14:09;16.70;99.60
41318;DHT22;27067;51.554;7.026;2024-01-06T09:16:36;16.60;99.60
41318;DHT22;27067;51.554;7.026;2024-01-06T09:19:02;16.60;99.70
41318;DHT22;27067;51.554;7.026;2024-01-06T09:21:28;16.60;99.80
41318;DHT22;27067;51.554;7.026;2024-01-06T09:23:53;16.50;99.90
41318;DHT22;27067;51.554;7.026;2024-01-06T09:26:19;16.50;99.90
41318;DHT22;27067;51.554;7.026;2024-01-06T09:28:45;16.50;99.90
41318;DHT22;27067;51.554;7.026;2024-01-06T09:31:10;16.50;99.90
41318;DHT22;27067;51.554;7.026;2024-01-06T09:33:36;16.40;99.90
41318;DHT22;27067;51.554;7.026;2024-01-06T09:36:02;16.50;99.90
41318;DHT22;27067;51.554;7.026;2024-01-06T09:38:28;16.50;99.90
41318;DHT22;27067;51.554;7.026;2024-01-06T09:40:55;16.50;99.90
41318;DHT22;27067;51.554;7.026;2024-01-06T09:43:21;16.40;99.90
41318;DHT22;27067;51.554;7.026;2024-01-06T09:45:57;16.40;99.90
41318;DHT22;27067;51.554;7.026;2024-01-06T09:48:28;16.40;99.90
41318;DHT22;27067;51.554;7.026;2024-01-06T09:50:56;16.40;99.90
41318;DHT22;27067;51.554;7.026;2024-01-06T09:53:24;16.40;99.90
41318;DHT22;27067;51.554;7.026;2024-01-06T09:55:53;16.40;99.90
41318;DHT22;27067;51.554;7.026;2024-01-06T09:58:20;16.50;99.90
41318;DHT22;27067;51.554;7.026;2024-01-06T10:00:48;16.40;99.90
41318;DHT22;27067;51.554;7.026;2024-01-06T10:03:14;16.50;99.90
41318;DHT22;27067;51.554;7.026;2024-01-06T10:05:40;16.50;99.90
41318;DHT22;27067;51.554;7.026;2024-01-06T10:08:09;16.50;99.90
41318;DHT22;27067;51.554;7.026;2024-01-06T10:10:37;16.60;99.90
41318;DHT22;27067;51.554;7.026;2024-01-06T10:13:03;16.60;99.90
41318;DHT22;27067;51.554;7.026;2024-01-06T10:15:32;16.60;99.90
41318;DHT22;27067;51.554;7.026;2024-01-06T10:18:04;16.60;99.90
41318;DHT22;27067;51.554;7.026;2024-01-06T10:20:30;16.60;99.90
41318;DHT22;27067;51.554;7.026;2024-01-06T10:23:04;16.70;99.90
41318;DHT22;27067;51.554;7.026;2024-01-06T10:25:34;16.70;99.90
41318;DHT22;27067;51.554;7.026;2024-01-06T10:28:03;16.70;99.90
41318;DHT22;27067;51.554;7.026;2024-01-06T10:30:31;16.70;99.90
41318;DHT22;27067;51.554;7.026;2024-01-06T10:32:57;16.70;99.90
41318;DHT22;27067;51.554;7.026;2024-01-06T10:35:25;16.70;99.90
41318;DHT22;27067;51.554;7.026;2024-01-06T10:37:51;16.70;99.90
41318;DHT22;27067;51.554;7.026;2024-01-06T10:40:17;16.70;99.90
41318;DHT22;27067;51.554;7.026;2024-01-06T10:42:44;16.70;99.90
41318;DHT22;27067;51.554;7.026;2024-01-06T10:45:14;16.60;99.90
41318;DHT22;27067;51.554;7.026;2024-01-06T10:47:41;16.60;99.90
41318;DHT22;27067;51.554;7.026;2024-01-06T10:50:10;16.50;99.90
41318;DHT22;27067;51.554;7.026;2024-01-06T10:52:43;16.50;99.90
41318;DHT22;27067;51.554;7.026;2024-01-06T10:55:09;16.50;99.90
41318;DHT22;27067;51.554;7.026;2024-01-06T10:57:37;16.40;99.90
41318;DHT22;27067;51.554;7.026;2024-01-06T11:00:04;16.40;99.90
41318;DHT22;27067;51.554;7.026;2024-01-06T11:02:31;16.40;99.90
41318;DHT22;27067;51.554;7.026;2024-01-06T11:04:57;16.40;99.90
41318;DHT22;27067;51.554;7.026;2024-01-06T11:07:25;16.40;99.90
41318;DHT22;27067;51.554;7.026;2024-01-06T11:12:17;16.40;99.90
41318;DHT22;27067;51.554;7.026;2024-01-06T11:14:43;16.30;99.90
41318;DHT22;27067;51.554;7.026;2024-01-06T11:17:11;16.30;99.90
41318;DHT22;27067;51.554;7.026;2024-01-06T11:24:54;16.40;99.90
41318;DHT22;27067;51.554;7.026;2024-01-06T11:27:28;16.50;99.90
41318;DHT22;27067;51.554;7.026;2024-01-06T11:29:55;16.50;99.90
41318;DHT22;27067;51.554;7.026;2024-01-06T11:32:28;16.50;99.90
41318;DHT22;27067;51.554;7.026;2024-01-06T11:34:55;16.50;99.90
41318;DHT22;27067;51.554;7.026;2024-01-06T11:39:56;16.60;99.90
41318;DHT22;27067;51.554;7.026;2024-01-06T11:42:21;16.60;99.90
41318;DHT22;27067;51.554;7.026;2024-01-06T11:45:02;16.60;99.90
41318;DHT22;27067;51.554;7.026;2024-01-06T11:47:28;16.60;99.90
41318;DHT22;27067;51.554;7.026;2024-01-06T11:49:56;16.60;99.90
41318;DHT22;27067;51.554;7.026;2024-01-06T11:52:24;16.60;99.90
41318;DHT22;27067;51.554;7.026;2024-01-06T11:54:52;16.60;99.90
41318;DHT22;27067;51.554;7.026;2024-01-06T11:57:18;16.60;99.90
41318;DHT22;27067;51.554;7.026;2024-01-06T11:59:44;16.50;99.90
41318;DHT22;27067;51.554;7.026;2024-01-06T12:02:13;16.50;99.90
41318;DHT22;27067;51.554;7.026;2024-01-06T12:04:39;16.50;99.90
41318;DHT22;27067;51.554;7.026;2024-01-06T12:07:09;16.50;99.90
41318;DHT22;27067;51.554;7.026;2024-01-06T12:09:35;16.40;99.90
41318;DHT22;27067;51.554;7.026;2024-01-06T12:12:04;16.40;99.90
41318;DHT22;27067;51.554;7.026;2024-01-06T12:14:34;16.40;99.90
41318;DHT22;27067;51.554;7.026;2024-01-06T12:17:00;16.40;99.90
41318;DHT22;27067;51.554;7.026;2024-01-06T12:19:32;16.40;99.90
41318;DHT22;27067;51.554;7.026;2024-01-06T12:21:58;16.40;99.90
41318;DHT22;27067;51.554;7.026;2024-01-06T12:24:26;16.40;99.90
41318;DHT22;27067;51.554;7.026;2024-01-06T12:26:52;16.40;99.90
41318;DHT22;27067;51.554;7.026;2024-01-06T12:29:18;16.40;99.90
41318;DHT22;27067;51.554;7.026;2024-01-06T12:31:45;16.40;99.90
41318;DHT22;27067;51.554;7.026;2024-01-06T12:34:11;16.40;99.90
41318;DHT22;27067;51.554;7.026;2024-01-06T12:36:38;16.40;99.90
41318;DHT22;27067;51.554;7.026;2024-01-06T12:39:04;16.40;99.90
41318;DHT22;27067;51.554;7.026;2024-01-06T12:41:30;16.40;99.90
41318;DHT22;27067;51.554;7.026;2024-01-06T12:43:59;16.40;99.90
41318;DHT22;27067;51.554;7.026;2024-01-06T12:46:26;16.40;99.90
41318;DHT22;27067;51.554;7.026;2024-01-06T12:48:52;16.40;99.90
41318;DHT22;27067;51.554;7.026;2024-01-06T12:51:17;16.40;99.90
41318;DHT22;27067;51.554;7.026;2024-01-06T12:53:43;16.40;99.90
41318;DHT22;27067;51.554;7.026;2024-01-06T12:56:08;16.40;99.90
41318;DHT22;27067;51.554;7.026;2024-01-06T12:58:34;16.40;99.90
41318;DHT22;27067;51.554;7.026;2024-01-06T13:01:00;16.40;99.90
41318;DHT22;27067;51.554;7.026;2024-01-06T13:03:25;16.40;99.90
41318;DHT22;27067;51.554;7.026;2024-01-06T13:05:51;16.50;99.90
41318;DHT22;27067;51.554;7.026;2024-01-06T13:08:16;16.50;99.90
41318;DHT22;27067;51.554;7.026;2024-01-06T13:10:42;16.50;99.90
41318;DHT22;27067;51.554;7.026;2024-01-06T13:13:08;16.50;99.90
41318;DHT22;27067;51.554;7.026;2024-01-06T13:15:34;16.50;99.90
41318;DHT22;27067;51.554;7.026;2024-01-06T13:18:00;16.50;99.90
41318;DHT22;27067;51.554;7.026;2024-01-06T13:20:25;16.50;99.90
41318;DHT22;27067;51.554;7.026;2024-01-06T13:22:51;16.50;99.90
41318;DHT22;27067;51.554;7.026;2024-01-06T13:25:17;16.50;99.90
41318;DHT22;27067;51.554;7.026;2024-01-06T13:27:45;16.50;99.90
41318;DHT22;27067;51.554;7.026;2024-01-06T13:30:11;16.50;99.90
41318;DHT22;27067;51.554;7.026;2024-01-06T13:32:38;16.50;99.90
41318;DHT22;27067;51.554;7.026;2024-01-06T13:35:04;16.40;99.90
41318;DHT22;27067;51.554;7.026;2024-01-06T13:37:31;16.40;99.90
41318;DHT22;27067;51.554;7.026;2024-01-06T13:39:57;16.40;99.90
41318;DHT22;27067;51.554;7.026;2024-01-06T13:42:23;16.40;99.90
41318;DHT22;27067;51.554;7.026;2024-01-06T13:44:49;16.30;99.90
41318;DHT22;27067;51.554;7.026;2024-01-06T13:47:15;16.30;99.90
41318;DHT22;27067;51.554;7.026;2024-01-06T13:49:41;16.30;99.90
41318;DHT22;27067;51.554;7.026;2024-01-06T13:52:07;16.30;99.90
41318;DHT22;27067;51.554;7.026;2024-01-06T13:54:35;16.30;99.90
41318;DHT22;27067;51.554;7.026;2024-01-06T13:57:02;16.30;99.90
41318;DHT22;27067;51.554;7.026;2024-01-06T13:59:28;16.20;99.90
41318;DHT22;27067;51.554;7.026;2024-01-06T14:01:54;16.30;99.90
41318;DHT22;27067;51.554;7.026;2024-01-06T14:04:20;16.30;99.90
41318;DHT22;27067;51.554;7.026;2024-01-06T14:06:45;16.30;99.90
41318;DHT22;27067;51.554;7.026;2024-01-06T14:09:13;16.30;99.90
41318;DHT22;27067;51.554;7.026;2024-01-06T14:11:39;16.30;99.90
41318;DHT22;27067;51.554;7.026;2024-01-06T14:14:05;16.20;99.90
41318;DHT22;27067;51.554;7.026;2024-01-06T14:16:31;16.20;99.90
41318;DHT22;27067;51.554;7.026;2024-01-06T14:18:57;16.20;99.90
41318;DHT22;27067;51.554;7.026;2024-01-06T14:21:23;16.20;99.90
41318;DHT22;27067;51.554;7.026;2024-01-06T14:23:48;16.30;99.90
41318;DHT22;27067;51.554;7.026;2024-01-06T14:26:18;16.30;99.90
41318;DHT22;27067;51.554;7.026;2024-01-06T14:28:46;16.40;99.90
41318;DHT22;27067;51.554;7.026;2024-01-06T14:31:11;16.50;99.90
41318;DHT22;27067;51.554;7.026;2024-01-06T14:33:37;16.50;99.90
41318;DHT22;27067;51.554;7.026;2024-01-06T14:36:03;16.50;99.90
41318;DHT22;27067;51.554;7.026;2024-01-06T14:38:28;16.50;99.90
41318;DHT22;27067;51.554;7.026;2024-01-06T14:40:54;16.60;99.90
41318;DHT22;27067;51.554;7.026;2024-01-06T14:43:20;16.60;99.90
41318;DHT22;27067;51.554;7.026;2024-01-06T14:45:46;16.60;99.90
41318;DHT22;27067;51.554;7.026;2024-01-06T14:48:12;16.60;99.90
41318;DHT22;27067;51.554;7.026;2024-01-06T14:50:38;16.70;99.90
41318;DHT22;27067;51.554;7.026;2024-01-06T14:53:04;16.60;99.90
41318;DHT22;27067;51.554;7.026;2024-01-06T14:55:29;16.60;99.90
41318;DHT22;27067;51.554;7.026;2024-01-06T14:57:55;16.60;99.90
41318;DHT22;27067;51.554;7.026;2024-01-06T15:00:20;16.60;99.90
41318;DHT22;27067;51.554;7.026;2024-01-06T15:02:46;16.60;99.90
41318;DHT22;27067;51.554;7.026;2024-01-06T15:05:12;16.70;99.90
41318;DHT22;27067;51.554;7.026;2024-01-06T15:07:38;16.70;99.90
41318;DHT22;27067;51.554;7.026;2024-01-06T15:10:04;16.70;99.80
41318;DHT22;27067;51.554;7.026;2024-01-06T15:12:31;16.70;99.70
41318;DHT22;27067;51.554;7.026;2024-01-06T15:14:56;16.70;99.80
41318;DHT22;27067;51.554;7.026;2024-01-06T15:17:24;16.70;99.90
41318;DHT22;27067;51.554;7.026;2024-01-06T15:19:51;16.70;99.90
41318;DHT22;27067;51.554;7.026;2024-01-06T15:22:17;16.70;99.60
41318;DHT22;27067;51.554;7.026;2024-01-06T15:24:43;16.70;99.40
41318;DHT22;27067;51.554;7.026;2024-01-06T15:27:10;16.80;99.40
41318;DHT22;27067;51.554;7.026;2024-01-06T15:29:36;16.80;99.40
41318;DHT22;27067;51.554;7.026;2024-01-06T15:32:01;16.80;99.50
41318;DHT22;27067;51.554;7.026;2024-01-06T15:34:27;16.80;99.30